Sawyer, ND (58781)

11:49 AM CDT on August 24, 2016 (GMT -0500)
27th Street Southeast | | Change Station

Elev 1555 ft 48.23 °N, 101.25 °W | Updated 3 minutes ago

Mostly Cloudy
Mostly Cloudy
66.0 °F
Feels Like 66.0 °F
N
4.3
Wind Variable Wind from WSW
Gusts 8.1 mph

Today
High -- | Low -- °F
--% Chance of Precip.
Yesterday
High -- | Low -- °F
Precip. -- in
Pressure 29.91 in
Visibility 10.0 miles
Clouds Mostly Cloudy 3200 ft
Dew Point 52 °F
Humidity 61%
Rainfall 0.00 in
Snow Depth Not available.
6:52 AM 8:39 PM
Waning Gibbous, 55% visible
METAR KMOT 241554Z 26019G27KT 10SM BKN032 18/09 A2992 RMK AO2 PK WND 27031/1456 SLP128 T01780094
Pressure 29.91 in
Visibility 10.0 miles
Clouds Mostly Cloudy 3200 ft
Dew Point 52 °F
Humidity 61%
Rainfall 0.00 in
Snow Depth Not available.
6:52 AM 8:39 PM
Waning Gibbous, 55% visible
METAR KMOT 241554Z 26019G27KT 10SM BKN032 18/09 A2992 RMK AO2 PK WND 27031/1456 SLP128 T01780094

10-Day Weather Forecast

Almanac

Astronomy

Aug. 24, 2016 Rise Set
Actual Time
Civil Twilight
Nautical Twilight
Astronomical Twilight
Moon
Length of Visible Light
Length of Day
Tomorrow will be .
, % of the Moon is Illuminated

Today's Extremes

State Highs State Lows

Community

WunderPhotos

Upload Photos

1,934,652 photos uploaded!

WunderBlog® & News

Nearby

Air Quality

  Air Quality AQ Index Pollutant
Not available.

Snow Depth

Station Depth Elevation

Earthquake Activity

City Distance Mag. Time & Date
Minimum magnitude displayed is 2.5.

Coastal Water Temperatures

Place Temperature

Stations

Nearby Weather Stations

Station Location Temp. Windchill Dew Point Humidity Wind Precip. Elev Updated Type
                   

Watches & Warnings

There are currently no watches in effect.